Terminal Aerodrome Forecast
Issued by NWS

Home | Current Version | Previous Version | Text Only | Print | Product List | Glossary On
Versions: 1 2 3 4 5 6 7 8 9 10 11 12 13 14
347
FTUS45 KTFX 230525
TAFBZN
TAF
KBZN 230525Z 2306/2406 VRB06KT P6SM FEW030 OVC060
      TEMPO 2307/2310 3SM -SN BR SCT010 OVC030
     FM231900 VRB06KT 3SM -SN BR SCT005 OVC020=

USA.gov is the U.S. government's official web portal to all federal, state and local government web resources and services.